createdAt,value
2022-09-17T00:00:31.291Z,6.30
2022-09-17T00:05:31.098Z,4.60
2022-09-17T00:06:46.856Z,4.60
2022-09-17T00:10:31.368Z,6.10
2022-09-17T00:15:31.138Z,5.70
2022-09-17T00:20:20.833Z,9.10
2022-09-17T00:20:30.628Z,9.10
2022-09-17T00:25:30.573Z,5.00
2022-09-17T00:26:59.332Z,5.00
2022-09-17T00:30:30.682Z,4.80
2022-09-17T00:35:30.482Z,5.30
2022-09-17T00:40:30.746Z,4.80
2022-09-17T00:45:31.408Z,5.10
2022-09-17T00:45:39.784Z,5.10
2022-09-17T00:48:18.536Z,5.10
2022-09-17T00:50:34.175Z,4.10
2022-09-17T00:55:35.463Z,5.30
2022-09-17T00:58:07.036Z,5.30
2022-09-17T01:00:09.036Z,4.70
2022-09-17T01:00:31.548Z,4.70
2022-09-17T01:05:40.257Z,7.40
2022-09-17T01:06:27.735Z,7.40
2022-09-17T01:10:41.725Z,6.20
2022-09-17T01:14:31.979Z,6.20
2022-09-17T01:15:39.084Z,7.20
2022-09-17T01:20:47.415Z,5.60
2022-09-17T01:21:49.790Z,5.60
2022-09-17T01:25:41.506Z,4.40
2022-09-17T01:30:13.834Z,4.50
2022-09-17T01:30:37.745Z,4.50
2022-09-17T01:35:34.933Z,6.20
2022-09-17T01:39:31.184Z,6.20
2022-09-17T01:40:39.254Z,5.00
2022-09-17T01:41:42.336Z,5.00
2022-09-17T01:45:37.450Z,7.20
2022-09-17T01:50:37.017Z,5.10
2022-09-17T01:55:34.801Z,6.20
2022-09-17T02:00:30.877Z,5.20
2022-09-17T02:03:16.403Z,5.20
2022-09-17T02:05:40.443Z,5.60
2022-09-17T02:09:37.408Z,4.30
2022-09-17T02:10:34.296Z,4.30
2022-09-17T02:15:36.157Z,3.10
2022-09-17T02:20:38.151Z,4.70
2022-09-17T02:25:35.598Z,3.70
2022-09-17T02:26:55.137Z,3.70
2022-09-17T02:29:32.427Z,6.60
2022-09-17T02:30:31.179Z,6.60
2022-09-17T02:35:31.074Z,4.40
2022-09-17T02:40:36.351Z,4.00
2022-09-17T02:41:11.185Z,4.00
2022-09-17T02:44:42.774Z,6.00
2022-09-17T02:45:45.237Z,6.00
2022-09-17T02:49:44.691Z,5.00
2022-09-17T02:50:47.719Z,5.00
2022-09-17T02:51:23.330Z,5.00
2022-09-17T02:55:36.359Z,4.10
2022-09-17T03:00:10.383Z,6.20
2022-09-17T03:00:30.855Z,6.20
2022-09-17T03:05:31.898Z,5.40
2022-09-17T03:10:32.700Z,6.00
2022-09-17T03:12:25.819Z,6.00
2022-09-17T03:15:30.547Z,6.90
2022-09-17T03:17:26.264Z,6.90
2022-09-17T03:20:30.459Z,4.90
2022-09-17T03:21:06.055Z,4.90
2022-09-17T03:24:16.391Z,5.00
2022-09-17T03:25:30.733Z,5.00
2022-09-17T03:30:30.561Z,6.10
2022-09-17T03:35:30.379Z,6.60
2022-09-17T03:40:30.471Z,5.40
2022-09-17T03:45:19.010Z,5.60
2022-09-17T03:45:30.423Z,5.60
2022-09-17T03:48:00.966Z,5.60
2022-09-17T03:50:30.560Z,4.40
2022-09-17T03:51:11.236Z,4.40
2022-09-17T03:54:38.850Z,6.30
2022-09-17T03:55:30.384Z,6.30
2022-09-17T04:00:30.908Z,4.80
2022-09-17T04:05:30.791Z,5.10
2022-09-17T04:07:50.132Z,5.10
2022-09-17T04:10:30.412Z,4.70
2022-09-17T04:12:13.705Z,4.70
2022-09-17T04:15:30.364Z,6.50
2022-09-17T04:19:57.276Z,9.60
2022-09-17T04:20:30.391Z,9.60
2022-09-17T04:22:04.863Z,9.60
2022-09-17T04:25:30.435Z,5.90
2022-09-17T04:30:30.987Z,6.20
2022-09-17T04:32:01.407Z,6.20
2022-09-17T04:35:30.507Z,7.40
2022-09-17T04:40:30.819Z,6.00
2022-09-17T04:45:32.371Z,7.50
2022-09-17T04:48:44.874Z,8.60
2022-09-17T04:50:30.967Z,8.60
2022-09-17T04:55:30.337Z,5.50
2022-09-17T05:00:30.555Z,5.70
2022-09-17T05:03:46.141Z,9.00
2022-09-17T05:05:30.335Z,9.00
2022-09-17T05:06:10.480Z,9.00
2022-09-17T05:10:30.388Z,5.60
2022-09-17T05:14:54.982Z,6.70
2022-09-17T05:15:30.397Z,6.70
2022-09-17T05:16:26.837Z,6.70
2022-09-17T05:20:30.360Z,7.20
2022-09-17T05:21:16.104Z,7.20
2022-09-17T05:25:31.475Z,9.70
2022-09-17T05:25:38.716Z,9.70
2022-09-17T05:29:05.437Z,6.60
2022-09-17T05:30:32.207Z,6.60
2022-09-17T05:33:02.159Z,6.60
2022-09-17T05:35:32.385Z,7.00
2022-09-17T05:38:35.068Z,6.20
2022-09-17T05:40:31.771Z,6.20
2022-09-17T05:45:32.204Z,3.60
2022-09-17T05:46:14.872Z,3.60
2022-09-17T05:50:31.283Z,4.60
2022-09-17T05:52:13.912Z,4.60
2022-09-17T05:55:30.731Z,8.00
2022-09-17T05:56:08.730Z,8.00
2022-09-17T06:00:30.287Z,6.60
2022-09-17T06:03:38.627Z,4.80
2022-09-17T06:05:13.850Z,4.80
2022-09-17T06:05:30.788Z,4.80
2022-09-17T06:10:07.341Z,5.60
2022-09-17T06:10:30.531Z,5.60
2022-09-17T06:15:30.376Z,5.50
2022-09-17T06:15:38.637Z,5.50
2022-09-17T06:20:30.292Z,6.80
2022-09-17T06:21:11.807Z,6.80
2022-09-17T06:24:36.635Z,5.60
2022-09-17T06:25:30.792Z,5.60
2022-09-17T06:30:30.326Z,5.80
2022-09-17T06:34:45.400Z,5.20
2022-09-17T06:35:30.231Z,5.20
2022-09-17T06:40:30.387Z,7.30
2022-09-17T06:44:20.740Z,6.20
2022-09-17T06:45:30.561Z,6.20
2022-09-17T06:46:15.994Z,6.20
2022-09-17T06:50:30.363Z,6.90
2022-09-17T06:50:42.606Z,6.90
2022-09-17T06:55:30.612Z,5.70
2022-09-17T07:00:30.234Z,5.70
2022-09-17T07:02:35.978Z,5.70
2022-09-17T07:04:28.847Z,4.20
2022-09-17T07:05:31.849Z,4.20
2022-09-17T07:09:37.595Z,7.10
2022-09-17T07:10:31.279Z,7.10
2022-09-17T07:15:30.315Z,6.20
2022-09-17T07:20:30.454Z,6.20
2022-09-17T07:25:30.248Z,9.20
2022-09-17T07:30:30.789Z,5.10
2022-09-17T07:35:30.346Z,8.30
2022-09-17T07:40:30.415Z,4.50
2022-09-17T07:43:22.437Z,9.20
2022-09-17T07:45:30.246Z,9.20
2022-09-17T07:49:49.943Z,8.30
2022-09-17T07:50:32.397Z,8.30
2022-09-17T07:55:30.606Z,8.80
2022-09-17T08:00:30.682Z,9.20
2022-09-17T08:04:09.829Z,5.30
2022-09-17T08:05:31.440Z,5.30
2022-09-17T08:10:30.483Z,9.70
2022-09-17T08:15:30.308Z,6.10
2022-09-17T08:18:38.411Z,4.80
2022-09-17T08:20:30.199Z,4.80
2022-09-17T08:23:34.057Z,4.50
2022-09-17T08:25:30.339Z,4.50
2022-09-17T08:30:31.418Z,9.10
2022-09-17T08:35:30.167Z,6.00
2022-09-17T08:40:30.572Z,6.30
2022-09-17T08:43:58.551Z,7.60
2022-09-17T08:45:30.265Z,7.60
2022-09-17T08:47:12.818Z,5.50
2022-09-17T08:50:32.061Z,5.50
2022-09-17T08:50:41.558Z,5.50
2022-09-17T08:55:36.445Z,4.60
2022-09-17T09:00:38.100Z,8.50
2022-09-17T09:05:35.828Z,3.90
2022-09-17T09:07:30.320Z,5.10
2022-09-17T09:10:36.952Z,5.10
2022-09-17T09:15:37.233Z,4.00
2022-09-17T09:20:39.034Z,5.10
2022-09-17T09:25:36.046Z,5.30
2022-09-17T09:26:01.956Z,5.30
2022-09-17T09:30:42.217Z,5.20
2022-09-17T09:33:48.025Z,4.40
2022-09-17T09:35:32.595Z,4.40
2022-09-17T09:35:50.655Z,4.40
2022-09-17T09:40:36.568Z,4.70
2022-09-17T09:44:41.731Z,4.30
2022-09-17T09:45:14.412Z,4.30
2022-09-17T09:45:43.814Z,4.30
2022-09-17T09:50:11.395Z,2.70
2022-09-17T09:51:02.229Z,2.70
2022-09-17T09:54:30.343Z,2.40
2022-09-17T09:55:47.421Z,2.40
2022-09-17T09:58:34.742Z,5.20
2022-09-17T10:00:34.685Z,5.20
2022-09-17T10:00:42.609Z,5.20
2022-09-17T10:05:30.200Z,2.70
2022-09-17T10:08:39.507Z,3.90
2022-09-17T10:10:18.699Z,3.90
2022-09-17T10:10:29.999Z,3.90
2022-09-17T10:15:25.756Z,2.50
2022-09-17T10:15:29.809Z,2.50
2022-09-17T10:20:30.348Z,3.80
2022-09-17T10:25:27.568Z,5.10
2022-09-17T10:25:32.623Z,5.10
2022-09-17T10:30:31.063Z,3.50
2022-09-17T10:33:56.590Z,2.20
2022-09-17T10:35:30.558Z,2.20
2022-09-17T10:40:31.486Z,3.90
2022-09-17T10:40:39.139Z,3.90
2022-09-17T10:45:31.533Z,3.60
2022-09-17T10:46:38.531Z,5.30
2022-09-17T10:49:53.025Z,5.30
2022-09-17T10:50:31.975Z,5.30
2022-09-17T10:52:59.615Z,4.10
2022-09-17T10:54:58.779Z,4.10
2022-09-17T10:55:32.656Z,4.10
2022-09-17T11:00:38.690Z,2.90
2022-09-17T11:05:39.189Z,2.50
2022-09-17T11:06:37.494Z,2.50
2022-09-17T11:08:40.967Z,2.50
2022-09-17T11:10:36.776Z,2.50
2022-09-17T11:11:26.668Z,1.90
2022-09-17T11:12:43.793Z,1.90
2022-09-17T11:15:39.572Z,1.90
2022-09-17T11:16:36.266Z,2.90
2022-09-17T11:20:46.215Z,2.90
2022-09-17T11:25:33.879Z,4.60
2022-09-17T11:25:43.707Z,4.60
2022-09-17T11:30:35.062Z,3.10
2022-09-17T11:35:34.518Z,3.60
2022-09-17T11:40:36.986Z,2.20
2022-09-17T11:41:49.243Z,4.80
2022-09-17T11:45:35.466Z,4.80
2022-09-17T11:50:35.690Z,3.20
2022-09-17T11:55:34.598Z,2.60
2022-09-17T11:55:41.659Z,2.60
2022-09-17T11:59:21.894Z,3.20
2022-09-17T12:00:34.701Z,3.20
2022-09-17T12:02:45.314Z,2.20
2022-09-17T12:05:34.968Z,2.20
2022-09-17T12:05:48.517Z,2.20
2022-09-17T12:10:40.608Z,1.70
2022-09-17T12:10:48.845Z,1.70
2022-09-17T12:10:57.176Z,1.70
2022-09-17T12:13:50.526Z,3.20
2022-09-17T12:15:35.087Z,3.20
2022-09-17T12:20:32.969Z,2.60
2022-09-17T12:25:37.790Z,3.00
2022-09-17T12:30:37.431Z,2.60
2022-09-17T12:36:03.143Z,2.90
2022-09-17T12:40:34.410Z,4.20
2022-09-17T12:45:16.051Z,2.80
2022-09-17T12:45:40.375Z,2.80
2022-09-17T12:50:39.781Z,3.10
2022-09-17T12:51:09.603Z,4.10
2022-09-17T12:55:40.337Z,4.10
2022-09-17T12:59:39.108Z,3.00
2022-09-17T13:00:34.203Z,3.00
2022-09-17T13:05:49.418Z,3.60
2022-09-17T13:06:09.660Z,3.60
2022-09-17T13:06:21.288Z,3.60
2022-09-17T13:10:41.108Z,3.60
2022-09-17T13:14:16.363Z,3.30
2022-09-17T13:15:46.047Z,2.70
2022-09-17T13:18:12.404Z,2.70
2022-09-17T13:20:36.944Z,3.90
2022-09-17T13:22:02.939Z,3.90
2022-09-17T13:25:30.244Z,3.90
2022-09-17T13:30:49.911Z,2.90
2022-09-17T13:35:50.008Z,4.60
2022-09-17T13:40:32.023Z,3.80
2022-09-17T13:42:05.157Z,3.80
2022-09-17T13:43:28.876Z,3.80
2022-09-17T13:45:31.102Z,2.80
2022-09-17T13:50:33.103Z,3.40
2022-09-17T13:55:34.266Z,3.10
2022-09-17T13:57:12.978Z,3.10
2022-09-17T13:59:07.717Z,3.10
2022-09-17T14:00:48.912Z,3.20
2022-09-17T14:04:31.934Z,3.20
2022-09-17T14:05:34.671Z,3.80
2022-09-17T14:10:40.825Z,3.80
2022-09-17T14:15:31.349Z,5.10
2022-09-17T14:20:33.202Z,4.00
2022-09-17T14:30:00.663Z,5.10
2022-09-17T14:30:31.931Z,3.80
2022-09-17T14:32:19.834Z,3.80
2022-09-17T14:34:49.024Z,3.80
2022-09-17T14:35:34.440Z,3.10
2022-09-17T14:40:33.319Z,3.70
2022-09-17T14:44:58.370Z,3.70
2022-09-17T14:45:32.751Z,3.20
2022-09-17T14:46:28.798Z,3.20
2022-09-17T14:48:11.402Z,3.20
2022-09-17T14:50:30.484Z,5.30
2022-09-17T14:55:31.128Z,5.60
2022-09-17T14:59:51.972Z,5.60
2022-09-17T15:00:32.963Z,4.90
2022-09-17T15:03:20.680Z,4.90
2022-09-17T15:05:32.822Z,3.70
2022-09-17T15:09:21.654Z,3.70
2022-09-17T15:10:30.591Z,4.00
2022-09-17T15:11:39.569Z,4.00
2022-09-17T15:15:30.015Z,3.10
2022-09-17T15:20:31.083Z,3.10
2022-09-17T15:23:57.366Z,3.10
2022-09-17T15:25:31.348Z,3.00
2022-09-17T15:30:30.196Z,5.20
2022-09-17T15:35:31.558Z,5.50
2022-09-17T15:40:32.588Z,4.60
2022-09-17T15:44:30.398Z,4.60
2022-09-17T15:45:36.183Z,4.50
2022-09-17T15:50:16.261Z,5.80
2022-09-17T15:50:31.825Z,5.80
2022-09-17T15:55:32.482Z,4.20
2022-09-17T16:00:30.704Z,4.40
2022-09-17T16:02:56.964Z,4.40
2022-09-17T16:05:43.117Z,5.80
2022-09-17T16:08:22.940Z,5.80
2022-09-17T16:10:29.908Z,4.80
2022-09-17T16:15:29.960Z,5.90
2022-09-17T16:20:30.027Z,4.80
2022-09-17T16:25:30.140Z,6.60
2022-09-17T16:30:30.092Z,6.00
2022-09-17T16:35:29.969Z,4.30
2022-09-17T16:40:30.184Z,6.10
2022-09-17T16:42:23.624Z,6.10
2022-09-17T16:45:30.625Z,7.70
2022-09-17T16:50:30.121Z,6.20
2022-09-17T16:55:30.071Z,6.20
2022-09-17T17:00:29.981Z,8.30
2022-09-17T17:05:30.748Z,8.60
2022-09-17T17:10:30.074Z,10.30
2022-09-17T17:13:19.038Z,10.30
2022-09-17T17:14:48.971Z,9.70
2022-09-17T17:15:29.999Z,9.70
2022-09-17T17:20:31.046Z,6.40
2022-09-17T17:25:31.232Z,7.00
2022-09-17T17:28:56.126Z,7.00
2022-09-17T17:30:34.713Z,7.70
2022-09-17T17:35:30.548Z,9.10
2022-09-17T17:40:30.131Z,9.90
2022-09-17T17:45:29.850Z,10.30
2022-09-17T17:50:31.076Z,7.70
2022-09-17T17:55:30.043Z,7.70
2022-09-17T18:00:29.907Z,9.80
2022-09-17T18:05:29.946Z,9.70
2022-09-17T18:10:29.878Z,11.70
2022-09-17T18:15:31.934Z,12.10
2022-09-17T18:20:29.830Z,11.00
2022-09-17T18:25:30.082Z,11.10
2022-09-17T18:30:31.264Z,10.40
2022-09-17T18:35:34.308Z,11.00
2022-09-17T18:40:30.052Z,10.80
2022-09-17T18:44:05.246Z,10.80
2022-09-17T18:45:31.023Z,10.80
2022-09-17T18:50:29.935Z,11.90
2022-09-17T18:55:30.111Z,12.40
2022-09-17T18:58:56.107Z,19.20
2022-09-17T19:00:29.981Z,19.20
2022-09-17T19:05:30.012Z,12.10
2022-09-17T19:10:30.327Z,10.40
2022-09-17T19:15:29.935Z,12.40
2022-09-17T19:20:34.717Z,14.50
2022-09-17T19:22:32.633Z,14.50
2022-09-17T19:25:30.168Z,15.40
2022-09-17T19:28:22.080Z,15.40
2022-09-17T19:30:31.302Z,15.40
2022-09-17T19:35:29.945Z,12.80
2022-09-17T19:40:29.870Z,15.50
2022-09-17T19:45:30.086Z,14.80
2022-09-17T19:50:30.788Z,13.90
2022-09-17T19:51:13.426Z,13.90
2022-09-17T19:55:29.740Z,12.90
2022-09-17T19:58:49.392Z,13.50
2022-09-17T20:00:30.042Z,13.50
2022-09-17T20:01:13.006Z,13.50
2022-09-17T20:05:30.238Z,18.40
2022-09-17T20:10:32.782Z,21.60
2022-09-17T20:13:37.633Z,16.90
2022-09-17T20:15:33.479Z,16.90
2022-09-17T20:20:29.898Z,16.20
2022-09-17T20:23:15.372Z,17.00
2022-09-17T20:25:29.965Z,17.00
2022-09-17T20:25:38.231Z,17.00
2022-09-17T20:30:02.202Z,16.40
2022-09-17T20:30:29.823Z,16.40
2022-09-17T20:35:29.757Z,15.80
2022-09-17T20:39:13.219Z,16.10
2022-09-17T20:40:29.976Z,16.10
2022-09-17T20:45:29.710Z,16.30
2022-09-17T20:50:29.878Z,15.40
2022-09-17T20:51:39.224Z,15.40
2022-09-17T20:55:29.743Z,15.10
2022-09-17T20:59:46.113Z,17.30
2022-09-17T21:00:30.087Z,17.30
2022-09-17T21:05:29.901Z,13.60
2022-09-17T21:08:27.654Z,14.80
2022-09-17T21:10:29.710Z,14.80
2022-09-17T21:15:29.946Z,13.10
2022-09-17T21:20:29.830Z,12.20
2022-09-17T21:24:27.157Z,11.50
2022-09-17T21:25:29.792Z,11.50
2022-09-17T21:33:33.155Z,11.60
2022-09-17T21:38:33.234Z,10.90
2022-09-17T21:43:33.802Z,9.20
2022-09-17T21:48:35.224Z,9.60
2022-09-17T21:53:33.850Z,11.40
2022-09-17T21:58:33.957Z,12.00
2022-09-17T22:03:32.914Z,12.80
2022-09-17T22:08:33.805Z,11.60
2022-09-17T22:13:32.866Z,11.90
2022-09-17T22:18:34.445Z,10.80
2022-09-17T22:23:32.995Z,10.50
2022-09-17T22:28:34.958Z,11.70
2022-09-17T22:33:02.936Z,10.00
2022-09-17T22:33:35.344Z,10.00
2022-09-17T22:38:33.242Z,13.80
2022-09-17T22:43:33.393Z,11.50
2022-09-17T22:48:32.639Z,11.30
2022-09-17T22:53:32.883Z,11.10
2022-09-17T22:58:32.786Z,12.00
2022-09-17T23:03:33.464Z,10.60
2022-09-17T23:08:34.127Z,9.50
2022-09-17T23:13:33.668Z,11.40
2022-09-17T23:18:33.996Z,10.10
2022-09-17T23:23:34.472Z,11.00
2022-09-17T23:28:34.367Z,12.10
2022-09-17T23:33:33.118Z,12.80
2022-09-17T23:38:33.993Z,11.30
2022-09-17T23:43:32.747Z,10.60
2022-09-17T23:48:32.656Z,12.00
2022-09-17T23:53:34.279Z,9.80
2022-09-17T23:58:33.388Z,12.60
